Главная страница
METAR-TAF:

METAR-TAF

Аэропорты :

Meriden-Markham Municipal Airport

Meriden, Коннектикут, США

широта: 41-30-35N, долгота: 072-49-40W, высота над уровнем моря: 31 м

Текущие метеонаблюдения

Эта сводка был подготовлена 28 минут назад, в 14:06 UTC
Ветер 12 Узел от западно-северо-западный с порывами до 19 Узел
Температура 17°C
Влажность 48%
Давление 1006 hPa
Видимость: 16.1 км
небольшая облачность на высоте 3800 фута

METAR: KMMK 241406Z AUTO 30012G19KT 10SM FEW038 17/06 A2971 RMK AO2 WSHFT 1346 T01670061

Время: 10:34 (14:34 UTC)


TAF: отсутствует

Метеонаблюдения и прогнозы для более 4000 аэропортов (сводки METAR и TAF).

Имеющиеся станции представлены на карте желтыми и красными точками.

Чтобы увидеть название станции, наведите на нее мышь.

Затем щелкните, чтобы увидеть метеонаблюдения и метеопрогнозы.

Управление картой: чтобы увеличить масштаб, щелкните зеленые кнопки с черным крестиком; чтобы уменьшить масштаб, щелкните зеленую кнопку с тире; для просмотра соседних карт щелкайте зеленые стрелки.


METAR-TAF: